sensor_id;sensor_type;location;lat;lon;timestamp;P1;durP1;ratioP1;P2;durP2;ratioP2
79646;SDS011;69119;41.718;21.786;2023-04-15T00:01:23;9.68;;;6.05;;
79646;SDS011;69119;41.718;21.786;2023-04-15T00:03:50;9.40;;;6.15;;
79646;SDS011;69119;41.718;21.786;2023-04-15T00:06:17;10.02;;;6.18;;
79646;SDS011;69119;41.718;21.786;2023-04-15T00:08:46;10.00;;;6.10;;
79646;SDS011;69119;41.718;21.786;2023-04-15T00:11:13;8.32;;;5.75;;
79646;SDS011;69119;41.718;21.786;2023-04-15T00:13:39;7.70;;;4.72;;
79646;SDS011;69119;41.718;21.786;2023-04-15T00:16:05;8.85;;;5.40;;
79646;SDS011;69119;41.718;21.786;2023-04-15T00:18:32;7.97;;;5.70;;
79646;SDS011;69119;41.718;21.786;2023-04-15T00:20:58;8.45;;;5.28;;
79646;SDS011;69119;41.718;21.786;2023-04-15T00:23:24;8.23;;;5.10;;
79646;SDS011;69119;41.718;21.786;2023-04-15T00:25:51;8.52;;;5.65;;
79646;SDS011;69119;41.718;21.786;2023-04-15T00:28:17;7.35;;;5.00;;
79646;SDS011;69119;41.718;21.786;2023-04-15T00:30:43;8.50;;;5.63;;
79646;SDS011;69119;41.718;21.786;2023-04-15T00:33:10;8.55;;;4.93;;
79646;SDS011;69119;41.718;21.786;2023-04-15T00:35:36;7.20;;;4.82;;
79646;SDS011;69119;41.718;21.786;2023-04-15T00:38:03;10.35;;;5.70;;
79646;SDS011;69119;41.718;21.786;2023-04-15T00:42:55;8.15;;;4.63;;
79646;SDS011;69119;41.718;21.786;2023-04-15T00:45:21;8.98;;;5.25;;
79646;SDS011;69119;41.718;21.786;2023-04-15T00:47:48;7.28;;;3.60;;
79646;SDS011;69119;41.718;21.786;2023-04-15T00:50:14;8.18;;;5.47;;
79646;SDS011;69119;41.718;21.786;2023-04-15T00:52:40;9.00;;;4.22;;
79646;SDS011;69119;41.718;21.786;2023-04-15T00:55:08;8.60;;;4.72;;
79646;SDS011;69119;41.718;21.786;2023-04-15T01:00:32;8.85;;;5.25;;
79646;SDS011;69119;41.718;21.786;2023-04-15T01:02:58;8.73;;;4.40;;
79646;SDS011;69119;41.718;21.786;2023-04-15T01:05:24;9.45;;;5.18;;
79646;SDS011;69119;41.718;21.786;2023-04-15T01:07:51;9.45;;;5.75;;
79646;SDS011;69119;41.718;21.786;2023-04-15T01:10:17;9.55;;;5.93;;
79646;SDS011;69119;41.718;21.786;2023-04-15T01:12:43;10.57;;;5.82;;
79646;SDS011;69119;41.718;21.786;2023-04-15T01:15:09;9.15;;;5.80;;
79646;SDS011;69119;41.718;21.786;2023-04-15T01:17:35;8.30;;;6.43;;
79646;SDS011;69119;41.718;21.786;2023-04-15T01:20:02;10.45;;;6.18;;
79646;SDS011;69119;41.718;21.786;2023-04-15T01:22:29;8.00;;;4.03;;
79646;SDS011;69119;41.718;21.786;2023-04-15T01:25:05;8.35;;;5.10;;
79646;SDS011;69119;41.718;21.786;2023-04-15T01:27:32;8.15;;;4.82;;
79646;SDS011;69119;41.718;21.786;2023-04-15T01:29:59;9.60;;;6.45;;
79646;SDS011;69119;41.718;21.786;2023-04-15T01:32:27;7.90;;;4.80;;
79646;SDS011;69119;41.718;21.786;2023-04-15T01:34:53;7.22;;;4.85;;
79646;SDS011;69119;41.718;21.786;2023-04-15T01:37:19;8.07;;;5.05;;
79646;SDS011;69119;41.718;21.786;2023-04-15T01:39:45;7.22;;;5.30;;
79646;SDS011;69119;41.718;21.786;2023-04-15T01:42:11;7.65;;;4.40;;
79646;SDS011;69119;41.718;21.786;2023-04-15T01:44:37;8.30;;;5.15;;
79646;SDS011;69119;41.718;21.786;2023-04-15T01:47:03;8.10;;;5.25;;
79646;SDS011;69119;41.718;21.786;2023-04-15T01:49:30;8.45;;;5.35;;
79646;SDS011;69119;41.718;21.786;2023-04-15T01:51:56;10.00;;;6.85;;
79646;SDS011;69119;41.718;21.786;2023-04-15T01:54:23;8.38;;;5.00;;
79646;SDS011;69119;41.718;21.786;2023-04-15T01:56:49;9.02;;;5.75;;
79646;SDS011;69119;41.718;21.786;2023-04-15T01:59:15;8.02;;;4.90;;
79646;SDS011;69119;41.718;21.786;2023-04-15T02:01:41;10.13;;;5.32;;
79646;SDS011;69119;41.718;21.786;2023-04-15T02:04:07;9.85;;;6.40;;
79646;SDS011;69119;41.718;21.786;2023-04-15T02:06:40;9.93;;;5.57;;
79646;SDS011;69119;41.718;21.786;2023-04-15T02:09:06;10.40;;;6.60;;
79646;SDS011;69119;41.718;21.786;2023-04-15T02:11:32;9.38;;;6.10;;
79646;SDS011;69119;41.718;21.786;2023-04-15T02:16:25;8.40;;;6.47;;
79646;SDS011;69119;41.718;21.786;2023-04-15T02:18:51;8.52;;;4.07;;
79646;SDS011;69119;41.718;21.786;2023-04-15T02:21:17;10.13;;;5.50;;
79646;SDS011;69119;41.718;21.786;2023-04-15T02:23:43;8.88;;;5.90;;
79646;SDS011;69119;41.718;21.786;2023-04-15T02:26:11;9.40;;;6.00;;
79646;SDS011;69119;41.718;21.786;2023-04-15T02:28:37;10.57;;;5.70;;
79646;SDS011;69119;41.718;21.786;2023-04-15T02:31:06;9.48;;;5.88;;
79646;SDS011;69119;41.718;21.786;2023-04-15T02:33:33;8.73;;;6.03;;
79646;SDS011;69119;41.718;21.786;2023-04-15T02:36:01;9.35;;;5.57;;
79646;SDS011;69119;41.718;21.786;2023-04-15T02:38:27;9.98;;;5.97;;
79646;SDS011;69119;41.718;21.786;2023-04-15T02:40:53;10.02;;;7.05;;
79646;SDS011;69119;41.718;21.786;2023-04-15T02:43:19;8.70;;;5.38;;
79646;SDS011;69119;41.718;21.786;2023-04-15T02:45:45;8.07;;;6.35;;
79646;SDS011;69119;41.718;21.786;2023-04-15T02:48:11;9.60;;;7.57;;
79646;SDS011;69119;41.718;21.786;2023-04-15T02:50:37;9.35;;;6.32;;
79646;SDS011;69119;41.718;21.786;2023-04-15T02:53:04;8.45;;;4.15;;
79646;SDS011;69119;41.718;21.786;2023-04-15T02:55:31;9.45;;;5.72;;
79646;SDS011;69119;41.718;21.786;2023-04-15T02:57:57;8.18;;;5.25;;
79646;SDS011;69119;41.718;21.786;2023-04-15T03:00:24;9.43;;;3.90;;
79646;SDS011;69119;41.718;21.786;2023-04-15T03:02:56;9.75;;;6.15;;
79646;SDS011;69119;41.718;21.786;2023-04-15T03:05:22;9.95;;;5.03;;
79646;SDS011;69119;41.718;21.786;2023-04-15T03:10:25;8.40;;;6.78;;
79646;SDS011;69119;41.718;21.786;2023-04-15T03:12:51;7.72;;;5.22;;
79646;SDS011;69119;41.718;21.786;2023-04-15T03:15:17;8.43;;;4.00;;
79646;SDS011;69119;41.718;21.786;2023-04-15T03:17:43;8.63;;;5.22;;
79646;SDS011;69119;41.718;21.786;2023-04-15T03:20:09;9.32;;;5.85;;
79646;SDS011;69119;41.718;21.786;2023-04-15T03:22:35;8.18;;;5.60;;
79646;SDS011;69119;41.718;21.786;2023-04-15T03:25:01;9.63;;;5.82;;
79646;SDS011;69119;41.718;21.786;2023-04-15T03:27:27;11.15;;;6.55;;
79646;SDS011;69119;41.718;21.786;2023-04-15T03:29:53;9.95;;;6.35;;
79646;SDS011;69119;41.718;21.786;2023-04-15T03:32:20;8.40;;;5.55;;
79646;SDS011;69119;41.718;21.786;2023-04-15T03:34:46;8.65;;;5.72;;
79646;SDS011;69119;41.718;21.786;2023-04-15T03:37:12;9.25;;;5.93;;
79646;SDS011;69119;41.718;21.786;2023-04-15T03:39:38;8.63;;;4.22;;
79646;SDS011;69119;41.718;21.786;2023-04-15T03:42:04;9.05;;;5.68;;
79646;SDS011;69119;41.718;21.786;2023-04-15T03:44:30;8.40;;;5.60;;
79646;SDS011;69119;41.718;21.786;2023-04-15T03:46:57;9.50;;;5.85;;
79646;SDS011;69119;41.718;21.786;2023-04-15T03:49:23;9.27;;;6.07;;
79646;SDS011;69119;41.718;21.786;2023-04-15T03:51:49;7.80;;;5.38;;
79646;SDS011;69119;41.718;21.786;2023-04-15T03:54:15;8.52;;;6.28;;
79646;SDS011;69119;41.718;21.786;2023-04-15T03:56:41;9.13;;;6.72;;
79646;SDS011;69119;41.718;21.786;2023-04-15T03:59:07;9.77;;;6.20;;
79646;SDS011;69119;41.718;21.786;2023-04-15T04:01:33;11.63;;;7.97;;
79646;SDS011;69119;41.718;21.786;2023-04-15T04:03:59;13.43;;;7.03;;
79646;SDS011;69119;41.718;21.786;2023-04-15T04:06:26;11.07;;;7.18;;
79646;SDS011;69119;41.718;21.786;2023-04-15T04:08:52;9.07;;;4.80;;
79646;SDS011;69119;41.718;21.786;2023-04-15T04:11:18;8.68;;;4.55;;
79646;SDS011;69119;41.718;21.786;2023-04-15T04:13:45;14.32;;;9.70;;
79646;SDS011;69119;41.718;21.786;2023-04-15T04:16:11;13.02;;;7.10;;
79646;SDS011;69119;41.718;21.786;2023-04-15T04:18:37;10.88;;;7.85;;
79646;SDS011;69119;41.718;21.786;2023-04-15T04:21:03;8.90;;;4.32;;
79646;SDS011;69119;41.718;21.786;2023-04-15T04:23:29;11.15;;;7.60;;
79646;SDS011;69119;41.718;21.786;2023-04-15T04:25:55;13.40;;;8.02;;
79646;SDS011;69119;41.718;21.786;2023-04-15T04:28:21;8.90;;;5.72;;
79646;SDS011;69119;41.718;21.786;2023-04-15T04:30:47;10.90;;;6.57;;
79646;SDS011;69119;41.718;21.786;2023-04-15T04:33:13;8.20;;;3.67;;
79646;SDS011;69119;41.718;21.786;2023-04-15T04:35:39;13.05;;;7.30;;
79646;SDS011;69119;41.718;21.786;2023-04-15T04:38:05;7.57;;;3.85;;
79646;SDS011;69119;41.718;21.786;2023-04-15T04:40:31;10.43;;;5.60;;
79646;SDS011;69119;41.718;21.786;2023-04-15T04:42:58;9.00;;;6.00;;
79646;SDS011;69119;41.718;21.786;2023-04-15T04:45:24;10.00;;;6.10;;
79646;SDS011;69119;41.718;21.786;2023-04-15T04:47:50;8.60;;;5.18;;
79646;SDS011;69119;41.718;21.786;2023-04-15T04:50:16;8.93;;;4.88;;
79646;SDS011;69119;41.718;21.786;2023-04-15T04:52:42;10.00;;;5.07;;
79646;SDS011;69119;41.718;21.786;2023-04-15T04:55:08;9.13;;;6.15;;
79646;SDS011;69119;41.718;21.786;2023-04-15T04:57:34;10.07;;;5.45;;
79646;SDS011;69119;41.718;21.786;2023-04-15T05:00:02;8.75;;;6.32;;
79646;SDS011;69119;41.718;21.786;2023-04-15T05:02:28;9.82;;;5.20;;
79646;SDS011;69119;41.718;21.786;2023-04-15T05:04:55;12.88;;;6.03;;
79646;SDS011;69119;41.718;21.786;2023-04-15T05:07:21;15.43;;;9.20;;
79646;SDS011;69119;41.718;21.786;2023-04-15T05:09:47;15.45;;;8.18;;
79646;SDS011;69119;41.718;21.786;2023-04-15T05:12:13;13.13;;;7.13;;
79646;SDS011;69119;41.718;21.786;2023-04-15T05:14:39;8.18;;;4.20;;
79646;SDS011;69119;41.718;21.786;2023-04-15T05:17:06;10.43;;;7.07;;
79646;SDS011;69119;41.718;21.786;2023-04-15T05:19:32;7.70;;;3.65;;
79646;SDS011;69119;41.718;21.786;2023-04-15T05:21:59;8.25;;;4.80;;
79646;SDS011;69119;41.718;21.786;2023-04-15T05:24:25;7.82;;;5.07;;
79646;SDS011;69119;41.718;21.786;2023-04-15T05:26:51;7.88;;;3.53;;
79646;SDS011;69119;41.718;21.786;2023-04-15T05:29:17;10.32;;;4.88;;
79646;SDS011;69119;41.718;21.786;2023-04-15T05:31:43;7.88;;;5.50;;
79646;SDS011;69119;41.718;21.786;2023-04-15T05:34:09;8.68;;;6.18;;
79646;SDS011;69119;41.718;21.786;2023-04-15T05:36:36;10.25;;;6.45;;
79646;SDS011;69119;41.718;21.786;2023-04-15T05:39:02;13.30;;;8.05;;
79646;SDS011;69119;41.718;21.786;2023-04-15T05:41:28;10.45;;;6.30;;
79646;SDS011;69119;41.718;21.786;2023-04-15T05:43:54;12.95;;;8.57;;
79646;SDS011;69119;41.718;21.786;2023-04-15T05:46:20;11.30;;;6.97;;
79646;SDS011;69119;41.718;21.786;2023-04-15T05:48:47;12.27;;;7.10;;
79646;SDS011;69119;41.718;21.786;2023-04-15T05:51:13;10.75;;;8.35;;
79646;SDS011;69119;41.718;21.786;2023-04-15T05:53:39;13.18;;;7.30;;
79646;SDS011;69119;41.718;21.786;2023-04-15T05:56:06;10.07;;;5.82;;
79646;SDS011;69119;41.718;21.786;2023-04-15T05:58:32;10.52;;;6.13;;
79646;SDS011;69119;41.718;21.786;2023-04-15T06:00:58;9.48;;;5.03;;
79646;SDS011;69119;41.718;21.786;2023-04-15T06:03:24;9.13;;;5.53;;
79646;SDS011;69119;41.718;21.786;2023-04-15T06:05:50;10.25;;;6.13;;
79646;SDS011;69119;41.718;21.786;2023-04-15T06:08:16;10.07;;;5.85;;
79646;SDS011;69119;41.718;21.786;2023-04-15T06:13:09;9.45;;;5.65;;
79646;SDS011;69119;41.718;21.786;2023-04-15T06:15:35;14.52;;;9.85;;
79646;SDS011;69119;41.718;21.786;2023-04-15T06:20:27;12.07;;;9.18;;
79646;SDS011;69119;41.718;21.786;2023-04-15T06:22:53;16.58;;;9.10;;
79646;SDS011;69119;41.718;21.786;2023-04-15T06:25:19;10.35;;;6.38;;
79646;SDS011;69119;41.718;21.786;2023-04-15T06:27:45;18.13;;;7.85;;
79646;SDS011;69119;41.718;21.786;2023-04-15T06:30:12;11.45;;;8.13;;
79646;SDS011;69119;41.718;21.786;2023-04-15T06:32:38;10.35;;;7.43;;
79646;SDS011;69119;41.718;21.786;2023-04-15T06:35:04;15.38;;;9.40;;
79646;SDS011;69119;41.718;21.786;2023-04-15T06:37:30;15.60;;;9.75;;
79646;SDS011;69119;41.718;21.786;2023-04-15T06:39:56;12.75;;;8.15;;
79646;SDS011;69119;41.718;21.786;2023-04-15T06:42:23;13.32;;;8.82;;
79646;SDS011;69119;41.718;21.786;2023-04-15T06:44:49;12.88;;;8.20;;
79646;SDS011;69119;41.718;21.786;2023-04-15T06:47:15;11.25;;;7.35;;
79646;SDS011;69119;41.718;21.786;2023-04-15T06:49:41;9.90;;;5.82;;
79646;SDS011;69119;41.718;21.786;2023-04-15T06:52:09;16.50;;;9.40;;
79646;SDS011;69119;41.718;21.786;2023-04-15T06:54:35;11.32;;;6.72;;
79646;SDS011;69119;41.718;21.786;2023-04-15T06:57:01;11.88;;;7.95;;
79646;SDS011;69119;41.718;21.786;2023-04-15T06:59:27;13.50;;;8.63;;
79646;SDS011;69119;41.718;21.786;2023-04-15T07:04:19;11.15;;;7.38;;
79646;SDS011;69119;41.718;21.786;2023-04-15T07:06:46;11.88;;;7.53;;
79646;SDS011;69119;41.718;21.786;2023-04-15T07:09:12;11.10;;;8.23;;
79646;SDS011;69119;41.718;21.786;2023-04-15T07:14:04;11.85;;;6.45;;
79646;SDS011;69119;41.718;21.786;2023-04-15T07:16:30;14.35;;;10.68;;
79646;SDS011;69119;41.718;21.786;2023-04-15T07:18:56;17.95;;;13.43;;
79646;SDS011;69119;41.718;21.786;2023-04-15T07:21:23;14.32;;;9.40;;
79646;SDS011;69119;41.718;21.786;2023-04-15T07:23:49;14.63;;;9.00;;
79646;SDS011;69119;41.718;21.786;2023-04-15T07:26:15;16.42;;;10.93;;
79646;SDS011;69119;41.718;21.786;2023-04-15T07:28:42;18.40;;;13.77;;
79646;SDS011;69119;41.718;21.786;2023-04-15T07:31:08;16.17;;;12.32;;
79646;SDS011;69119;41.718;21.786;2023-04-15T07:33:34;15.68;;;10.25;;
79646;SDS011;69119;41.718;21.786;2023-04-15T07:36:01;20.30;;;15.13;;
79646;SDS011;69119;41.718;21.786;2023-04-15T07:38:27;14.63;;;9.05;;
79646;SDS011;69119;41.718;21.786;2023-04-15T07:40:53;15.18;;;9.68;;
79646;SDS011;69119;41.718;21.786;2023-04-15T07:43:20;14.93;;;8.45;;
79646;SDS011;69119;41.718;21.786;2023-04-15T07:45:46;12.15;;;6.85;;
79646;SDS011;69119;41.718;21.786;2023-04-15T07:48:12;11.50;;;6.28;;
79646;SDS011;69119;41.718;21.786;2023-04-15T07:50:38;8.60;;;4.45;;
79646;SDS011;69119;41.718;21.786;2023-04-15T07:53:05;7.30;;;2.85;;
79646;SDS011;69119;41.718;21.786;2023-04-15T07:55:31;9.95;;;4.63;;
79646;SDS011;69119;41.718;21.786;2023-04-15T08:00:24;9.10;;;3.88;;
79646;SDS011;69119;41.718;21.786;2023-04-15T08:02:51;7.88;;;2.97;;
79646;SDS011;69119;41.718;21.786;2023-04-15T08:05:18;4.93;;;2.58;;
79646;SDS011;69119;41.718;21.786;2023-04-15T08:07:44;6.50;;;2.60;;
79646;SDS011;69119;41.718;21.786;2023-04-15T08:10:10;6.50;;;2.30;;
79646;SDS011;69119;41.718;21.786;2023-04-15T08:12:37;6.05;;;2.35;;
79646;SDS011;69119;41.718;21.786;2023-04-15T08:17:29;9.95;;;5.05;;
79646;SDS011;69119;41.718;21.786;2023-04-15T08:19:55;8.57;;;4.63;;
79646;SDS011;69119;41.718;21.786;2023-04-15T08:24:47;4.35;;;1.90;;
79646;SDS011;69119;41.718;21.786;2023-04-15T08:27:13;5.00;;;1.98;;
79646;SDS011;69119;41.718;21.786;2023-04-15T08:32:05;6.53;;;2.72;;
79646;SDS011;69119;41.718;21.786;2023-04-15T08:34:31;7.72;;;3.55;;
79646;SDS011;69119;41.718;21.786;2023-04-15T08:36:58;5.93;;;1.67;;
79646;SDS011;69119;41.718;21.786;2023-04-15T08:39:24;4.15;;;1.75;;
79646;SDS011;69119;41.718;21.786;2023-04-15T08:41:55;6.82;;;2.83;;
79646;SDS011;69119;41.718;21.786;2023-04-15T08:44:22;5.00;;;1.58;;
79646;SDS011;69119;41.718;21.786;2023-04-15T08:46:50;4.57;;;1.48;;
79646;SDS011;69119;41.718;21.786;2023-04-15T08:49:16;7.07;;;2.53;;
79646;SDS011;69119;41.718;21.786;2023-04-15T08:51:44;5.53;;;2.00;;
79646;SDS011;69119;41.718;21.786;2023-04-15T08:54:10;5.70;;;1.83;;
79646;SDS011;69119;41.718;21.786;2023-04-15T08:56:37;5.15;;;1.38;;
79646;SDS011;69119;41.718;21.786;2023-04-15T08:59:04;5.45;;;1.58;;
79646;SDS011;69119;41.718;21.786;2023-04-15T09:01:31;4.32;;;1.52;;
79646;SDS011;69119;41.718;21.786;2023-04-15T09:03:57;5.43;;;2.85;;
79646;SDS011;69119;41.718;21.786;2023-04-15T09:06:25;4.55;;;1.85;;
79646;SDS011;69119;41.718;21.786;2023-04-15T09:08:51;4.53;;;1.85;;
79646;SDS011;69119;41.718;21.786;2023-04-15T09:13:43;6.03;;;2.33;;
79646;SDS011;69119;41.718;21.786;2023-04-15T09:16:10;4.72;;;1.88;;
79646;SDS011;69119;41.718;21.786;2023-04-15T09:18:37;5.32;;;2.00;;
79646;SDS011;69119;41.718;21.786;2023-04-15T09:21:10;5.30;;;1.77;;
79646;SDS011;69119;41.718;21.786;2023-04-15T09:23:37;5.60;;;1.63;;
79646;SDS011;69119;41.718;21.786;2023-04-15T09:26:04;6.65;;;2.40;;
79646;SDS011;69119;41.718;21.786;2023-04-15T09:28:30;8.05;;;2.22;;
79646;SDS011;69119;41.718;21.786;2023-04-15T09:31:00;6.35;;;2.20;;
79646;SDS011;69119;41.718;21.786;2023-04-15T09:33:27;6.10;;;1.77;;
79646;SDS011;69119;41.718;21.786;2023-04-15T09:35:57;4.75;;;1.20;;
79646;SDS011;69119;41.718;21.786;2023-04-15T09:38:23;4.70;;;1.33;;
79646;SDS011;69119;41.718;21.786;2023-04-15T09:40:49;4.80;;;1.58;;
79646;SDS011;69119;41.718;21.786;2023-04-15T09:43:16;5.38;;;1.98;;
79646;SDS011;69119;41.718;21.786;2023-04-15T09:45:49;6.90;;;2.25;;
79646;SDS011;69119;41.718;21.786;2023-04-15T09:48:19;4.47;;;1.73;;
79646;SDS011;69119;41.718;21.786;2023-04-15T09:50:46;4.93;;;1.85;;
79646;SDS011;69119;41.718;21.786;2023-04-15T09:53:20;5.63;;;1.67;;
79646;SDS011;69119;41.718;21.786;2023-04-15T09:55:50;7.35;;;2.72;;
79646;SDS011;69119;41.718;21.786;2023-04-15T09:58:17;5.50;;;1.40;;
79646;SDS011;69119;41.718;21.786;2023-04-15T10:00:44;13.50;;;7.18;;
79646;SDS011;69119;41.718;21.786;2023-04-15T10:03:11;10.70;;;6.85;;
79646;SDS011;69119;41.718;21.786;2023-04-15T10:05:38;7.05;;;3.10;;
79646;SDS011;69119;41.718;21.786;2023-04-15T10:08:04;8.43;;;4.22;;
79646;SDS011;69119;41.718;21.786;2023-04-15T10:10:30;6.82;;;2.47;;
79646;SDS011;69119;41.718;21.786;2023-04-15T10:12:57;4.72;;;2.85;;
79646;SDS011;69119;41.718;21.786;2023-04-15T10:15:23;6.38;;;2.65;;
79646;SDS011;69119;41.718;21.786;2023-04-15T10:17:50;5.00;;;1.88;;
79646;SDS011;69119;41.718;21.786;2023-04-15T10:20:18;5.95;;;2.20;;
79646;SDS011;69119;41.718;21.786;2023-04-15T10:22:44;8.88;;;2.78;;
79646;SDS011;69119;41.718;21.786;2023-04-15T10:25:11;5.75;;;1.90;;
79646;SDS011;69119;41.718;21.786;2023-04-15T10:30:03;5.72;;;2.00;;
79646;SDS011;69119;41.718;21.786;2023-04-15T10:32:30;5.63;;;1.60;;
79646;SDS011;69119;41.718;21.786;2023-04-15T10:34:56;5.22;;;1.58;;
79646;SDS011;69119;41.718;21.786;2023-04-15T10:37:36;7.28;;;2.20;;
79646;SDS011;69119;41.718;21.786;2023-04-15T10:42:47;6.05;;;2.17;;
79646;SDS011;69119;41.718;21.786;2023-04-15T10:45:17;6.95;;;3.00;;
79646;SDS011;69119;41.718;21.786;2023-04-15T10:47:43;6.40;;;1.70;;
79646;SDS011;69119;41.718;21.786;2023-04-15T10:52:36;6.65;;;2.42;;
79646;SDS011;69119;41.718;21.786;2023-04-15T10:55:15;7.53;;;3.53;;
79646;SDS011;69119;41.718;21.786;2023-04-15T10:57:43;6.43;;;1.65;;
79646;SDS011;69119;41.718;21.786;2023-04-15T11:05:05;5.72;;;2.28;;
79646;SDS011;69119;41.718;21.786;2023-04-15T11:07:32;5.50;;;1.88;;
79646;SDS011;69119;41.718;21.786;2023-04-15T11:09:58;5.05;;;1.85;;
79646;SDS011;69119;41.718;21.786;2023-04-15T11:12:32;4.88;;;1.50;;
79646;SDS011;69119;41.718;21.786;2023-04-15T11:15:23;5.55;;;2.20;;
79646;SDS011;69119;41.718;21.786;2023-04-15T11:17:46;6.10;;;2.38;;
79646;SDS011;69119;41.718;21.786;2023-04-15T11:22:38;6.18;;;2.22;;
79646;SDS011;69119;41.718;21.786;2023-04-15T11:25:20;5.88;;;2.08;;
79646;SDS011;69119;41.718;21.786;2023-04-15T11:27:46;6.57;;;1.95;;
79646;SDS011;69119;41.718;21.786;2023-04-15T11:30:17;7.80;;;1.88;;
79646;SDS011;69119;41.718;21.786;2023-04-15T11:32:45;6.10;;;1.77;;
79646;SDS011;69119;41.718;21.786;2023-04-15T11:35:11;6.60;;;2.08;;
79646;SDS011;69119;41.718;21.786;2023-04-15T11:37:37;5.35;;;1.92;;
79646;SDS011;69119;41.718;21.786;2023-04-15T11:40:03;6.47;;;2.97;;
79646;SDS011;69119;41.718;21.786;2023-04-15T11:42:29;6.93;;;2.45;;
79646;SDS011;69119;41.718;21.786;2023-04-15T11:45:13;5.10;;;1.50;;
79646;SDS011;69119;41.718;21.786;2023-04-15T11:47:41;8.50;;;2.97;;
79646;SDS011;69119;41.718;21.786;2023-04-15T11:50:17;9.73;;;3.95;;
79646;SDS011;69119;41.718;21.786;2023-04-15T11:55:19;12.88;;;6.72;;
79646;SDS011;69119;41.718;21.786;2023-04-15T12:00:11;5.47;;;2.00;;
79646;SDS011;69119;41.718;21.786;2023-04-15T12:02:38;6.00;;;1.67;;
79646;SDS011;69119;41.718;21.786;2023-04-15T12:07:30;11.05;;;3.63;;
79646;SDS011;69119;41.718;21.786;2023-04-15T12:09:56;5.85;;;1.67;;
79646;SDS011;69119;41.718;21.786;2023-04-15T12:12:27;8.15;;;1.95;;
79646;SDS011;69119;41.718;21.786;2023-04-15T12:14:53;5.95;;;1.50;;
79646;SDS011;69119;41.718;21.786;2023-04-15T12:17:22;6.00;;;2.03;;
79646;SDS011;69119;41.718;21.786;2023-04-15T12:19:54;6.57;;;2.10;;
79646;SDS011;69119;41.718;21.786;2023-04-15T12:22:20;4.78;;;1.45;;
79646;SDS011;69119;41.718;21.786;2023-04-15T12:24:47;6.55;;;1.95;;
79646;SDS011;69119;41.718;21.786;2023-04-15T12:27:19;6.40;;;1.85;;
79646;SDS011;69119;41.718;21.786;2023-04-15T12:29:45;5.07;;;1.95;;
79646;SDS011;69119;41.718;21.786;2023-04-15T12:32:12;6.05;;;2.10;;
79646;SDS011;69119;41.718;21.786;2023-04-15T12:34:39;6.75;;;3.33;;
79646;SDS011;69119;41.718;21.786;2023-04-15T12:37:07;4.80;;;2.00;;
79646;SDS011;69119;41.718;21.786;2023-04-15T12:39:39;4.93;;;1.60;;
79646;SDS011;69119;41.718;21.786;2023-04-15T12:42:06;4.80;;;1.83;;
79646;SDS011;69119;41.718;21.786;2023-04-15T12:44:32;5.22;;;1.38;;
79646;SDS011;69119;41.718;21.786;2023-04-15T12:46:58;8.05;;;2.00;;
79646;SDS011;69119;41.718;21.786;2023-04-15T12:49:25;6.43;;;2.55;;
79646;SDS011;69119;41.718;21.786;2023-04-15T12:54:17;8.52;;;2.40;;
79646;SDS011;69119;41.718;21.786;2023-04-15T12:56:47;6.10;;;2.58;;
79646;SDS011;69119;41.718;21.786;2023-04-15T12:59:14;7.53;;;3.08;;
79646;SDS011;69119;41.718;21.786;2023-04-15T13:01:40;8.07;;;3.40;;
79646;SDS011;69119;41.718;21.786;2023-04-15T13:04:07;4.00;;;0.98;;
79646;SDS011;69119;41.718;21.786;2023-04-15T13:06:33;4.63;;;1.65;;
79646;SDS011;69119;41.718;21.786;2023-04-15T13:08:59;4.78;;;1.40;;
79646;SDS011;69119;41.718;21.786;2023-04-15T13:11:26;4.55;;;1.10;;
79646;SDS011;69119;41.718;21.786;2023-04-15T13:13:53;7.25;;;2.55;;
79646;SDS011;69119;41.718;21.786;2023-04-15T13:16:20;6.85;;;2.83;;
79646;SDS011;69119;41.718;21.786;2023-04-15T13:18:47;7.10;;;3.30;;
79646;SDS011;69119;41.718;21.786;2023-04-15T13:21:13;6.85;;;2.78;;
79646;SDS011;69119;41.718;21.786;2023-04-15T13:26:06;6.35;;;2.60;;
79646;SDS011;69119;41.718;21.786;2023-04-15T13:28:32;5.35;;;1.52;;
79646;SDS011;69119;41.718;21.786;2023-04-15T13:33:24;6.50;;;1.98;;
79646;SDS011;69119;41.718;21.786;2023-04-15T13:35:51;5.72;;;1.88;;
79646;SDS011;69119;41.718;21.786;2023-04-15T13:38:17;6.40;;;2.28;;
79646;SDS011;69119;41.718;21.786;2023-04-15T13:40:43;7.20;;;2.63;;
79646;SDS011;69119;41.718;21.786;2023-04-15T13:43:09;7.40;;;2.97;;
79646;SDS011;69119;41.718;21.786;2023-04-15T13:45:36;4.75;;;1.85;;
79646;SDS011;69119;41.718;21.786;2023-04-15T13:50:28;7.13;;;3.22;;
79646;SDS011;69119;41.718;21.786;2023-04-15T13:52:54;6.38;;;3.17;;
79646;SDS011;69119;41.718;21.786;2023-04-15T13:55:20;10.50;;;6.03;;
79646;SDS011;69119;41.718;21.786;2023-04-15T13:57:46;7.20;;;3.60;;
79646;SDS011;69119;41.718;21.786;2023-04-15T14:00:12;9.20;;;5.38;;
79646;SDS011;69119;41.718;21.786;2023-04-15T14:02:39;8.55;;;3.92;;
79646;SDS011;69119;41.718;21.786;2023-04-15T14:05:06;7.70;;;3.53;;
79646;SDS011;69119;41.718;21.786;2023-04-15T14:09:58;6.38;;;1.80;;
79646;SDS011;69119;41.718;21.786;2023-04-15T14:12:25;5.55;;;1.52;;
79646;SDS011;69119;41.718;21.786;2023-04-15T14:14:51;4.97;;;2.00;;
79646;SDS011;69119;41.718;21.786;2023-04-15T14:17:17;6.93;;;1.75;;
79646;SDS011;69119;41.718;21.786;2023-04-15T14:22:09;8.57;;;3.03;;
79646;SDS011;69119;41.718;21.786;2023-04-15T14:24:35;11.07;;;3.42;;
79646;SDS011;69119;41.718;21.786;2023-04-15T14:27:01;14.35;;;5.95;;
79646;SDS011;69119;41.718;21.786;2023-04-15T14:31:53;7.63;;;2.67;;
79646;SDS011;69119;41.718;21.786;2023-04-15T14:34:21;8.00;;;2.60;;
79646;SDS011;69119;41.718;21.786;2023-04-15T14:36:49;5.95;;;2.40;;
79646;SDS011;69119;41.718;21.786;2023-04-15T14:39:16;9.65;;;5.32;;
79646;SDS011;69119;41.718;21.786;2023-04-15T14:44:08;7.72;;;3.97;;
79646;SDS011;69119;41.718;21.786;2023-04-15T14:46:35;11.52;;;5.13;;
79646;SDS011;69119;41.718;21.786;2023-04-15T14:49:02;13.63;;;5.78;;
79646;SDS011;69119;41.718;21.786;2023-04-15T14:51:28;7.15;;;3.03;;
79646;SDS011;69119;41.718;21.786;2023-04-15T14:53:55;8.45;;;4.07;;
79646;SDS011;69119;41.718;21.786;2023-04-15T14:56:21;10.85;;;4.30;;
79646;SDS011;69119;41.718;21.786;2023-04-15T14:58:47;13.43;;;6.40;;
79646;SDS011;69119;41.718;21.786;2023-04-15T15:01:13;18.02;;;8.02;;
79646;SDS011;69119;41.718;21.786;2023-04-15T15:06:05;16.02;;;7.97;;
79646;SDS011;69119;41.718;21.786;2023-04-15T15:08:31;10.05;;;5.70;;
79646;SDS011;69119;41.718;21.786;2023-04-15T15:10:57;5.68;;;2.67;;
79646;SDS011;69119;41.718;21.786;2023-04-15T15:13:23;5.22;;;1.67;;
79646;SDS011;69119;41.718;21.786;2023-04-15T15:15:49;8.18;;;2.75;;
79646;SDS011;69119;41.718;21.786;2023-04-15T15:18:16;7.88;;;3.80;;
79646;SDS011;69119;41.718;21.786;2023-04-15T15:20:43;7.55;;;3.75;;
79646;SDS011;69119;41.718;21.786;2023-04-15T15:23:09;5.82;;;2.88;;
79646;SDS011;69119;41.718;21.786;2023-04-15T15:25:35;8.82;;;4.47;;
79646;SDS011;69119;41.718;21.786;2023-04-15T15:28:01;9.57;;;4.82;;
79646;SDS011;69119;41.718;21.786;2023-04-15T15:30:27;10.80;;;6.00;;
79646;SDS011;69119;41.718;21.786;2023-04-15T15:32:54;10.32;;;5.20;;
79646;SDS011;69119;41.718;21.786;2023-04-15T15:35:20;6.68;;;3.30;;
79646;SDS011;69119;41.718;21.786;2023-04-15T15:37:47;6.45;;;2.33;;
79646;SDS011;69119;41.718;21.786;2023-04-15T15:40:13;5.47;;;2.00;;
79646;SDS011;69119;41.718;21.786;2023-04-15T15:42:39;6.03;;;2.42;;
79646;SDS011;69119;41.718;21.786;2023-04-15T15:45:06;11.80;;;4.63;;